Latest Weather Observations for Roebourne Airport

IDW60801

Issued at 12:35 pm WST Friday 31 October 2014 (issued every 30 minutes, with the page automatically refreshed every 10 minutes)

About weather observations | Map of weather stations | Latest weather observations for WA | Other Formats
Station Details ID: 004090 Name: ROEBOURNE AERO Lat: -20.76 Lon: 117.16 Height: 10.7 m
Data from the previous 72 hours. | See also: Recent months at Roebourne Airport
Date/Time
WST
Temp
°C
App
Temp
°C
Dew
Point
Rel
Hum
%
Delta-T
°C
Wind Press
QNH
hPa
Press
MSL
hPa
Rain
since 9 am
mm
Dir
 
Spd
km/h
Gust
km/h
Spd
kts
Gust
kts
31/12:35pm 41.7 33.0 3.9 10 20.6 SW 39 57 21 31 1007.9 1007.9 0.0
31/12:34pm 41.1 32.3 3.4 10 20.4 SW 39 52 21 28 1007.9 1007.9 0.0
31/12:30pm 41.7 32.3 2.4 9 21.0 W 41 50 22 27 1007.8 1007.8 0.0
31/12:29pm 41.4 32.4 2.2 9 20.8 W 39 48 21 26 1007.8 1007.8 0.0
31/12:00pm 41.5 32.8 2.3 9 20.9 SW 37 61 20 33 1008.2 1008.2 0.0
31/11:30am 40.6 31.8 1.6 9 20.4 WSW 37 57 20 31 1008.6 1008.6 0.0
31/11:23am 40.5 32.4 3.0 10 20.1 WSW 35 57 19 31 1008.6 1008.6 0.0
31/11:00am 40.1 31.5 2.7 10 19.9 WSW 37 54 20 29 1008.8 1008.8 0.0
31/10:57am 40.2 32.0 2.8 10 19.9 WSW 35 54 19 29 1008.9 1008.9 0.0
31/10:30am 39.5 30.8 2.2 10 19.6 SW 37 48 20 26 1009.2 1009.2 0.0
31/10:00am 39.4 32.3 3.5 11 19.2 SW 30 44 16 24 1009.5 1009.5 0.0
31/09:30am 36.9 31.0 6.0 15 17.0 SW 26 37 14 20 1009.7 1009.7 0.0
31/09:00am 35.6 29.9 6.8 17 15.9 SW 26 35 14 19 1010.0 1010.0 0.0
31/08:30am 34.7 29.6 7.7 19 15.1 SW 24 33 13 18 1010.0 1010.0 0.0
31/08:00am 32.9 27.6 9.7 24 13.2 SW 28 35 15 19 1009.8 1009.8 0.0
31/07:30am 30.9 26.1 11.8 31 11.2 SW 28 35 15 19 1009.7 1009.7 0.0
31/07:00am 29.4 25.4 11.9 34 10.2 SW 24 30 13 16 1009.6 1009.6 0.0
31/06:30am 27.7 23.9 11.3 36 9.4 SW 22 26 12 14 1009.5 1009.5 0.0
31/06:00am 27.2 22.9 10.8 36 9.3 SW 24 33 13 18 1009.3 1009.3 0.0
31/05:30am 26.8 22.9 9.6 34 9.5 SW 20 26 11 14 1009.1 1009.1 0.0
31/05:00am 27.6 23.8 9.0 31 10.2 SW 19 24 10 13 1008.7 1008.7 0.0
31/04:30am 27.8 23.7 8.6 30 10.5 SW 20 26 11 14 1008.5 1008.5 0.0
31/04:00am 28.1 24.1 8.4 29 10.8 WSW 19 26 10 14 1008.3 1008.3 0.0
31/03:30am 28.3 24.3 8.1 28 11.0 WSW 19 24 10 13 1008.2 1008.2 0.0
31/03:00am 28.9 24.6 8.0 27 11.4 WSW 20 28 11 15 1008.2 1008.2 0.0
31/02:30am 29.3 25.3 8.4 27 11.5 WSW 19 24 10 13 1008.1 1008.1 0.0
31/02:00am 29.8 25.2 8.2 26 11.9 WSW 22 32 12 17 1008.1 1008.1 0.0
31/01:30am 30.2 25.6 8.0 25 12.2 SW 22 32 12 17 1008.2 1008.2 0.0
31/01:00am 30.6 25.7 8.3 25 12.3 WSW 24 30 13 16 1008.4 1008.4 0.0
31/12:30am 30.6 26.3 9.5 27 11.9 WSW 22 28 12 15 1008.6 1008.6 0.0
31/12:00am 30.6 26.8 11.1 30 11.3 W 22 26 12 14 1008.8 1008.8 0.0
 
Date/Time
WST
Temp
°C
App
Temp
°C
Dew
Point
Rel
Hum
%
Delta-T
°C
Wind Press
QNH
hPa
Press
MSL
hPa
Rain
since 9 am
mm
Dir
 
Spd
km/h
Gust
km/h
Spd
kts
Gust
kts
30/11:30pm 30.9 27.1 11.3 30 11.4 WSW 22 28 12 15 1009.1 1009.1 0.0
30/11:00pm 31.2 27.7 12.1 31 11.2 WSW 22 28 12 15 1009.4 1009.4 0.0
30/10:30pm 31.1 27.9 12.0 31 11.2 WSW 20 28 11 15 1009.6 1009.6 0.0
30/10:00pm 30.7 27.2 12.1 32 10.9 W 22 28 12 15 1009.8 1009.8 0.0
30/09:30pm 30.8 27.6 13.1 34 10.5 W 22 26 12 14 1009.7 1009.7 0.0
30/09:00pm 31.2 28.8 14.4 36 10.2 W 20 28 11 15 1009.5 1009.5 0.0
30/08:30pm 31.2 28.7 15.2 38 9.9 W 22 28 12 15 1009.4 1009.4 0.0
30/08:00pm 31.4 28.6 15.4 38 9.9 W 24 32 13 17 1009.1 1009.1 0.0
30/07:30pm 32.1 29.0 15.6 37 10.3 W 26 32 14 17 1008.8 1008.8 0.0
30/07:00pm 32.7 30.6 16.1 37 10.4 WNW 22 30 12 16 1008.4 1008.4 0.0
30/06:30pm 32.8 31.7 18.6 43 9.2 WNW 22 30 12 16 1008.0 1008.0 0.0
30/06:00pm 34.6 32.4 16.9 35 11.3 WNW 24 32 13 17 1007.8 1007.8 0.0
30/05:30pm 35.6 31.5 15.9 31 12.4 WNW 32 39 17 21 1007.4 1007.4 0.0
30/05:00pm 36.7 31.5 14.6 26 13.8 WNW 35 43 19 23 1007.2 1007.2 0.0
30/04:30pm 38.0 33.0 13.3 23 15.2 WNW 32 41 17 22 1007.0 1007.0 0.0
30/04:00pm 38.9 34.1 14.7 24 15.2 WNW 33 43 18 23 1007.0 1007.0 0.0
30/03:30pm 39.3 34.2 13.7 22 15.9 WNW 33 44 18 24 1007.0 1007.0 0.0
30/03:00pm 39.9 34.5 12.7 20 16.7 WNW 33 43 18 23 1007.2 1007.2 0.0
30/02:30pm 39.8 34.6 13.3 20 16.4 WNW 33 44 18 24 1007.4 1007.4 0.0
30/02:00pm 39.4 35.0 15.1 24 15.4 WNW 32 37 17 20 1007.7 1007.7 0.0
30/01:30pm 40.5 36.2 13.2 20 16.9 NNW 28 35 15 19 1008.0 1008.0 0.0
30/01:00pm 39.6 35.3 13.2 21 16.3 NW 28 35 15 19 1008.2 1008.2 0.0
30/12:30pm 40.8 34.8 7.0 13 19.2 NNW 28 35 15 19 1008.5 1008.5 0.0
30/12:00pm 40.9 37.8 7.1 13 19.2 N 13 19 7 10 1008.7 1008.7 0.0
30/11:30am 41.4 38.7 3.7 10 20.4 WSW 7 19 4 10 1009.2 1009.2 0.0
30/11:00am 40.3 37.4 2.8 10 20.0 S 7 17 4 9 1009.6 1009.6 0.0
30/10:30am 40.8 35.5 3.2 10 20.2 SSW 20 28 11 15 1010.0 1010.0 0.0
30/10:00am 38.9 34.9 3.1 11 19.0 SE 13 20 7 11 1010.3 1010.3 0.0
30/09:30am 38.3 34.9 3.9 12 18.4 SSE 11 19 6 10 1010.8 1010.8 0.0
30/09:00am 37.7 34.0 4.6 13 17.9 SSE 13 19 7 10 1011.0 1011.0 0.0
30/08:30am 36.0 33.0 6.2 16 16.3 SSE 11 19 6 10 1011.1 1011.1 0.0
30/08:00am 34.1 30.4 6.4 18 15.1 S 15 19 8 10 1010.9 1010.9 0.0
30/07:30am 31.7 29.7 8.7 24 12.8 SSW 9 11 5 6 1010.8 1010.8 0.0
30/07:00am 30.0 27.7 9.0 27 11.7 SSW 11 13 6 7 1010.7 1010.7 0.0
30/06:30am 25.1 24.6 10.6 40 8.1 WSW 4 9 2 5 1010.6 1010.6 0.0
30/06:00am 22.9 22.8 9.3 42 7.3 CALM 0 6 0 3 1010.4 1010.4 0.0
30/05:30am 23.7 22.5 10.4 43 7.3 WNW 7 9 4 5 1009.9 1009.9 0.0
30/05:00am 23.4 22.0 10.8 45 7.0 W 9 11 5 6 1009.6 1009.6 0.0
30/04:30am 23.6 22.3 11.3 46 6.9 WNW 9 11 5 6 1009.5 1009.5 0.0
30/04:00am 24.2 22.8 10.8 43 7.5 WNW 9 11 5 6 1009.3 1009.3 0.0
30/03:30am 24.6 23.5 10.8 42 7.7 W 7 9 4 5 1009.2 1009.2 0.0
30/03:00am 24.5 23.4 10.8 42 7.7 WNW 7 9 4 5 1009.1 1009.1 0.0
30/02:30am 24.6 24.4 10.5 41 7.8 ENE 2 6 1 3 1009.0 1009.0 0.0
30/02:00am 27.2 24.9 10.4 35 9.4 SW 13 17 7 9 1009.2 1009.2 0.0
30/01:30am 27.9 24.5 10.6 34 9.8 WSW 19 24 10 13 1009.2 1009.2 0.0
30/01:00am 28.1 25.1 10.8 34 9.8 WSW 17 24 9 13 1009.3 1009.3 0.0
30/12:30am 28.1 24.6 10.8 34 9.8 WSW 20 22 11 12 1009.5 1009.5 0.0
30/12:00am 27.1 24.4 10.3 35 9.4 W 15 17 8 9 1010.0 1010.0 0.0
 
Date/Time
WST
Temp
°C
App
Temp
°C
Dew
Point
Rel
Hum
%
Delta-T
°C
Wind Press
QNH
hPa
Press
MSL
hPa
Rain
since 9 am
mm
Dir
 
Spd
km/h
Gust
km/h
Spd
kts
Gust
kts
29/11:30pm 27.1 23.9 9.9 34 9.6 WNW 17 20 9 11 1010.3 1010.3 0.0
29/11:00pm 26.9 25.3 8.8 32 9.9 W 7 11 4 6 1010.6 1010.6 0.0
29/10:30pm 27.4 26.2 9.7 33 9.8 W 6 9 3 5 1010.8 1010.8 0.0
29/10:00pm 28.2 25.8 11.3 35 9.7 W 15 20 8 11 1010.7 1010.7 0.0
29/09:30pm 28.6 25.8 12.5 37 9.4 W 19 24 10 13 1010.7 1010.7 0.0
29/09:00pm 28.9 26.1 13.2 38 9.3 W 20 26 11 14 1010.7 1010.7 0.0
29/08:30pm 29.5 26.7 13.3 37 9.6 W 20 24 11 13 1010.6 1010.6 0.0
29/08:00pm 29.5 26.6 16.0 44 8.4 WNW 26 32 14 17 1010.3 1010.3 0.0
29/07:30pm 29.7 27.2 16.1 43 8.4 WNW 24 32 13 17 1010.0 1010.0 0.0
29/07:00pm 30.4 27.1 14.9 39 9.5 WNW 26 33 14 18 1009.7 1009.7 0.0
29/06:30pm 31.0 27.5 15.4 38 9.6 W 28 33 15 18 1009.5 1009.5 0.0
29/06:00pm 32.6 27.9 14.2 32 11.2 WNW 32 39 17 21 1009.2 1009.2 0.0
29/05:30pm 34.7 29.6 13.0 27 13.1 WNW 32 41 17 22 1009.1 1009.1 0.0
29/05:00pm 35.7 30.6 13.2 26 13.7 WNW 32 39 17 21 1009.0 1009.0 0.0
29/04:30pm 36.4 31.5 13.8 26 13.9 WNW 32 39 17 21 1008.8 1008.8 0.0
29/04:00pm 36.9 32.8 15.9 28 13.3 WNW 32 39 17 21 1008.8 1008.8 0.0
29/03:30pm 37.5 34.0 16.4 28 13.5 NW 30 39 16 21 1008.8 1008.8 0.0
29/03:00pm 37.1 33.4 16.1 29 13.4 NW 30 37 16 20 1009.0 1009.0 0.0
29/02:30pm 37.8 35.0 17.2 29 13.3 NNW 28 35 15 19 1009.0 1009.0 0.0
29/02:00pm 38.9 36.9 18.2 30 13.6 NW 26 37 14 20 1009.2 1009.2 0.0
29/01:30pm 39.3 38.0 19.0 30 13.5 NW 24 35 13 19 1009.4 1009.4 0.0
29/01:00pm 38.3 37.2 17.7 30 13.5 NW 20 30 11 16 1009.8 1009.8 0.0
29/12:30pm 38.8 37.4 19.6 32 12.9 NNW 26 33 14 18 1010.2 1010.2 0.0
29/12:00pm 37.0 37.5 21.1 39 10.8 N 20 28 11 15 1010.7 1010.7 0.0
29/11:30am 35.0 36.9 22.0 46 8.9 N 15 24 8 13 1011.0 1011.0 0.0
29/11:00am 34.8 36.7 22.8 49 8.3 N 17 24 9 13 1011.4 1011.4 0.0
29/10:30am 35.3 37.0 18.4 37 11.0 NE 7 17 4 9 1011.7 1011.7 0.0
29/10:00am 33.0 35.2 19.5 45 8.9 W 7 13 4 7 1011.8 1011.8 0.0
29/09:30am 31.5 34.1 20.4 51 7.4 WNW 7 11 4 6 1012.1 1012.1 0.0
29/09:00am 30.4 33.8 22.0 60 5.7 NNE 7 13 4 7 1012.5 1012.5 0.0
29/08:30am 29.4 33.6 22.4 66 4.8 ESE 4 11 2 6 1012.5 1012.5 0.0
29/08:00am 28.2 33.0 22.9 73 3.6 E 2 9 1 5 1012.3 1012.3 0.0
29/07:30am 26.8 30.0 22.4 77 3.0 E 9 13 5 7 1012.1 1012.1 0.0
29/07:00am 25.8 29.3 22.1 80 2.5 E 7 9 4 5 1012.0 1012.0 0.0
29/06:30am 23.0 25.8 19.6 81 2.2 ESE 4 7 2 4 1011.7 1011.7 0.0
29/06:00am 21.4 22.8 18.6 84 1.8 S 9 11 5 6 1011.8 1011.8 0.0
29/05:30am 20.7 22.1 17.7 83 1.8 SSW 7 9 4 5 1011.3 1011.3 0.0
29/05:00am 21.7 23.6 18.9 84 1.8 SSW 7 7 4 4 1011.2 1011.2 0.0
29/04:30am 21.5 23.9 17.9 80 2.2 WSW 2 7 1 4 1011.0 1011.0 0.0
29/04:00am 22.4 24.5 19.4 83 1.9 SSW 7 9 4 5 1010.8 1010.8 0.0
29/03:30am 22.8 25.9 19.4 81 2.2 NNE 2 6 1 3 1010.9 1010.9 0.0
29/03:00am 21.8 22.6 19.0 84 1.8 E 13 17 7 9 1011.0 1011.0 0.0
29/02:30am 21.0 23.2 16.6 76 2.7 CALM 0 0 0 0 1010.5 1010.5 0.0
29/02:00am 21.5 23.5 16.9 75 2.8 W 2 6 1 3 1010.3 1010.3 0.0
29/01:30am 22.4 24.0 18.2 77 2.6 WSW 7 9 4 5 1010.4 1010.4 0.0
29/01:00am 22.8 24.5 18.6 77 2.6 WSW 7 7 4 4 1010.5 1010.5 0.0
29/12:30am 22.5 25.4 18.1 76 2.7 CALM 0 0 0 0 1010.6 1010.6 0.0
29/12:00am 23.5 26.2 20.6 84 1.9 WSW 7 7 4 4 1010.9 1010.9 0.0
 
Date/Time
WST
Temp
°C
App
Temp
°C
Dew
Point
Rel
Hum
%
Delta-T
°C
Wind Press
QNH
hPa
Press
MSL
hPa
Rain
since 9 am
mm
Dir
 
Spd
km/h
Gust
km/h
Spd
kts
Gust
kts
28/11:30pm 23.4 26.1 20.3 83 2.0 NNW 6 7 3 4 1010.9 1010.9 0.0
28/11:00pm 23.2 25.5 19.8 81 2.2 N 7 9 4 5 1011.1 1011.1 0.0
28/10:30pm 24.1 27.2 20.2 79 2.5 NNE 4 6 2 3 1011.0 1011.0 0.0
28/10:00pm 23.9 26.3 20.0 79 2.5 NE 7 9 4 5 1011.0 1011.0 0.0
28/09:30pm 24.1 26.1 19.2 74 3.1 ENE 7 9 4 5 1011.0 1011.0 0.0
28/09:00pm 24.6 27.4 18.8 70 3.7 NNW 2 6 1 3 1010.9 1010.9 0.0
28/08:30pm 25.7 28.2 20.3 72 3.5 NW 7 7 4 4 1010.7 1010.7 0.0
28/08:00pm 26.2 28.4 20.5 71 3.7 NW 9 13 5 7 1010.5 1010.5 0.0
28/07:30pm 26.2 28.9 20.7 71 3.6 NW 7 11 4 6 1010.3 1010.3 0.0
28/07:00pm 26.6 28.4 20.4 69 4.1 NNW 11 13 6 7 1009.9 1009.9 0.0
28/06:30pm 26.9 28.4 21.2 71 3.8 N 15 20 8 11 1009.7 1009.7 0.0
28/06:00pm 27.6 28.0 20.7 66 4.6 N 19 24 10 13 1009.4 1009.4 0.0
28/05:30pm 28.8 28.3 20.0 59 5.8 N 22 26 12 14 1008.9 1008.9 0.0
28/05:00pm 29.4 28.6 20.0 57 6.2 N 24 30 13 16 1008.6 1008.6 0.0
28/04:30pm 29.7 28.8 21.4 61 5.6 NNE 28 35 15 19 1008.4 1008.4 0.0
28/04:00pm 29.5 27.9 20.1 57 6.2 NNE 28 33 15 18 1008.3 1008.3 0.0
28/03:30pm 29.8 28.3 20.9 59 5.9 NE 30 35 16 19 1008.3 1008.3 0.0
28/03:00pm 32.2 31.1 19.5 47 8.4 NNE 24 32 13 17 1008.3 1008.3 0.0
28/02:30pm 33.3 30.3 15.8 35 11.0 NNE 26 30 14 16 1008.1 1008.1 0.0
28/02:00pm 34.2 31.7 16.1 34 11.4 NNE 24 30 13 16 1008.4 1008.4 0.0
28/01:30pm 34.5 30.8 14.9 31 12.2 NNE 28 35 15 19 1008.6 1008.6 0.0
28/01:00pm 33.2 30.1 17.4 39 10.1 NNE 30 37 16 20 1008.9 1008.9 0.0

Other Formats:

Comma delimited format used in spreadsheet applications
http://www.bom.gov.au/fwo/IDW60801/IDW60801.94308.axf

JavaScript Object Notation format (JSON) in row-major order
http://www.bom.gov.au/fwo/IDW60801/IDW60801.94308.json